Cerkezmusellim, Turkey
Current Conditions -  °F | °C
As of 10:20 PM on Saturday 20 Dec 2014 (Local Time) from LTBU Reporting Station
Light Fog Light Fog  
Wind Chill: 41°   Ceiling: Unl
Heat Index: 41°   Visibility: 0.37mi
Dew Point: 41°   Wind: 2mph
Humidity: 100%   Direction: 250°WSW
Pressure: 30.12"   Gusts: NA
Location:  41.28°N, 27.03°E
Report Text: LTBU 202020Z 25002KT 0600 R05/0400D R23/1300N BCFG NSC 05/05 Q1020
Loading
Personal Weather Stations






























Interactive Weather Map New forecast layout! Learn more

10-Day Weather Forecast

Advertisements
Track Severe Weather on mobile